sensor_id;sensor_type;location;lat;lon;timestamp;pressure;altitude;pressure_sealevel;temperature
70969;BMP280;58630;43.022;25.100;2023-08-20T00:02:12;;;;26.90
70969;BMP280;58630;43.022;25.100;2023-08-20T00:04:38;;;;26.90
70969;BMP280;58630;43.022;25.100;2023-08-20T00:07:05;;;;26.90
70969;BMP280;58630;43.022;25.100;2023-08-20T00:09:31;;;;26.80
70969;BMP280;58630;43.022;25.100;2023-08-20T00:11:58;;;;26.80
70969;BMP280;58630;43.022;25.100;2023-08-20T00:14:51;;;;26.70
70969;BMP280;58630;43.022;25.100;2023-08-20T00:17:09;;;;26.70
70969;BMP280;58630;43.022;25.100;2023-08-20T00:19:35;;;;26.70
70969;BMP280;58630;43.022;25.100;2023-08-20T00:22:00;;;;26.70
70969;BMP280;58630;43.022;25.100;2023-08-20T00:24:26;;;;26.60
70969;BMP280;58630;43.022;25.100;2023-08-20T00:26:52;;;;26.60
70969;BMP280;58630;43.022;25.100;2023-08-20T00:29:17;;;;26.60
70969;BMP280;58630;43.022;25.100;2023-08-20T00:31:43;;;;26.60
70969;BMP280;58630;43.022;25.100;2023-08-20T00:34:08;;;;26.50
70969;BMP280;58630;43.022;25.100;2023-08-20T00:36:34;;;;26.50
70969;BMP280;58630;43.022;25.100;2023-08-20T00:38:59;;;;26.50
70969;BMP280;58630;43.022;25.100;2023-08-20T00:41:25;;;;26.40
70969;BMP280;58630;43.022;25.100;2023-08-20T00:43:50;;;;26.40
70969;BMP280;58630;43.022;25.100;2023-08-20T00:46:16;;;;26.40
70969;BMP280;58630;43.022;25.100;2023-08-20T00:48:41;;;;26.40
70969;BMP280;58630;43.022;25.100;2023-08-20T00:51:07;;;;26.30
70969;BMP280;58630;43.022;25.100;2023-08-20T00:53:32;;;;26.30
70969;BMP280;58630;43.022;25.100;2023-08-20T00:55:58;;;;26.20
70969;BMP280;58630;43.022;25.100;2023-08-20T00:58:24;;;;26.20
70969;BMP280;58630;43.022;25.100;2023-08-20T01:00:49;;;;26.20
70969;BMP280;58630;43.022;25.100;2023-08-20T01:03:15;;;;26.20
70969;BMP280;58630;43.022;25.100;2023-08-20T01:05:43;;;;26.10
70969;BMP280;58630;43.022;25.100;2023-08-20T01:08:15;;;;26.10
70969;BMP280;58630;43.022;25.100;2023-08-20T01:13:16;;;;26.10
70969;BMP280;58630;43.022;25.100;2023-08-20T01:15:42;;;;26.00
70969;BMP280;58630;43.022;25.100;2023-08-20T01:18:07;;;;26.00
70969;BMP280;58630;43.022;25.100;2023-08-20T01:20:35;;;;26.00
70969;BMP280;58630;43.022;25.100;2023-08-20T01:25:32;;;;25.90
70969;BMP280;58630;43.022;25.100;2023-08-20T01:30:45;;;;25.80
70969;BMP280;58630;43.022;25.100;2023-08-20T01:33:11;;;;25.90
70969;BMP280;58630;43.022;25.100;2023-08-20T01:35:38;;;;25.80
70969;BMP280;58630;43.022;25.100;2023-08-20T01:38:03;;;;25.80
70969;BMP280;58630;43.022;25.100;2023-08-20T01:40:29;;;;25.80
70969;BMP280;58630;43.022;25.100;2023-08-20T01:42:55;;;;25.70
70969;BMP280;58630;43.022;25.100;2023-08-20T01:45:20;;;;25.80
70969;BMP280;58630;43.022;25.100;2023-08-20T01:47:47;;;;25.70
70969;BMP280;58630;43.022;25.100;2023-08-20T01:50:12;;;;25.70
70969;BMP280;58630;43.022;25.100;2023-08-20T01:52:38;;;;25.60
70969;BMP280;58630;43.022;25.100;2023-08-20T01:55:04;;;;25.60
70969;BMP280;58630;43.022;25.100;2023-08-20T01:57:30;;;;25.60
70969;BMP280;58630;43.022;25.100;2023-08-20T01:59:57;;;;25.60
70969;BMP280;58630;43.022;25.100;2023-08-20T02:02:23;;;;25.60
70969;BMP280;58630;43.022;25.100;2023-08-20T02:04:49;;;;25.50
70969;BMP280;58630;43.022;25.100;2023-08-20T02:07:14;;;;25.50
70969;BMP280;58630;43.022;25.100;2023-08-20T02:09:40;;;;25.50
70969;BMP280;58630;43.022;25.100;2023-08-20T02:12:06;;;;25.50
70969;BMP280;58630;43.022;25.100;2023-08-20T02:14:31;;;;25.50
70969;BMP280;58630;43.022;25.100;2023-08-20T02:17:02;;;;25.50
70969;BMP280;58630;43.022;25.100;2023-08-20T02:19:28;;;;25.40
70969;BMP280;58630;43.022;25.100;2023-08-20T02:21:54;;;;25.40
70969;BMP280;58630;43.022;25.100;2023-08-20T02:24:19;;;;25.40
70969;BMP280;58630;43.022;25.100;2023-08-20T02:26:45;;;;25.40
70969;BMP280;58630;43.022;25.100;2023-08-20T02:29:10;;;;25.30
70969;BMP280;58630;43.022;25.100;2023-08-20T02:31:36;;;;25.20
70969;BMP280;58630;43.022;25.100;2023-08-20T02:34:01;;;;25.20
70969;BMP280;58630;43.022;25.100;2023-08-20T02:36:27;;;;25.20
70969;BMP280;58630;43.022;25.100;2023-08-20T02:38:52;;;;25.20
70969;BMP280;58630;43.022;25.100;2023-08-20T02:41:18;;;;25.20
70969;BMP280;58630;43.022;25.100;2023-08-20T02:43:44;;;;25.20
70969;BMP280;58630;43.022;25.100;2023-08-20T02:46:10;;;;25.10
70969;BMP280;58630;43.022;25.100;2023-08-20T02:48:35;;;;25.10
70969;BMP280;58630;43.022;25.100;2023-08-20T02:51:01;;;;25.10
70969;BMP280;58630;43.022;25.100;2023-08-20T02:53:26;;;;25.10
70969;BMP280;58630;43.022;25.100;2023-08-20T02:55:52;;;;25.00
70969;BMP280;58630;43.022;25.100;2023-08-20T02:58:17;;;;25.00
70969;BMP280;58630;43.022;25.100;2023-08-20T03:00:43;;;;25.00
70969;BMP280;58630;43.022;25.100;2023-08-20T03:03:10;;;;25.00
70969;BMP280;58630;43.022;25.100;2023-08-20T03:05:36;;;;24.90
70969;BMP280;58630;43.022;25.100;2023-08-20T03:08:01;;;;24.90
70969;BMP280;58630;43.022;25.100;2023-08-20T03:10:29;;;;24.90
70969;BMP280;58630;43.022;25.100;2023-08-20T03:12:54;;;;24.90
70969;BMP280;58630;43.022;25.100;2023-08-20T03:15:20;;;;24.90
70969;BMP280;58630;43.022;25.100;2023-08-20T03:17:45;;;;24.90
70969;BMP280;58630;43.022;25.100;2023-08-20T03:20:11;;;;24.80
70969;BMP280;58630;43.022;25.100;2023-08-20T03:22:37;;;;24.80
70969;BMP280;58630;43.022;25.100;2023-08-20T03:25:03;;;;24.80
70969;BMP280;58630;43.022;25.100;2023-08-20T03:27:28;;;;24.70
70969;BMP280;58630;43.022;25.100;2023-08-20T03:29:54;;;;24.70
70969;BMP280;58630;43.022;25.100;2023-08-20T03:32:19;;;;24.70
70969;BMP280;58630;43.022;25.100;2023-08-20T03:34:45;;;;24.70
70969;BMP280;58630;43.022;25.100;2023-08-20T03:37:10;;;;24.70
70969;BMP280;58630;43.022;25.100;2023-08-20T03:39:36;;;;24.60
70969;BMP280;58630;43.022;25.100;2023-08-20T03:42:01;;;;24.60
70969;BMP280;58630;43.022;25.100;2023-08-20T03:44:27;;;;24.60
70969;BMP280;58630;43.022;25.100;2023-08-20T03:46:54;;;;24.60
70969;BMP280;58630;43.022;25.100;2023-08-20T03:49:20;;;;24.60
70969;BMP280;58630;43.022;25.100;2023-08-20T03:51:45;;;;24.60
70969;BMP280;58630;43.022;25.100;2023-08-20T03:54:11;;;;24.50
70969;BMP280;58630;43.022;25.100;2023-08-20T03:56:36;;;;24.50
70969;BMP280;58630;43.022;25.100;2023-08-20T03:59:02;;;;24.50
70969;BMP280;58630;43.022;25.100;2023-08-20T04:01:27;;;;24.50
70969;BMP280;58630;43.022;25.100;2023-08-20T04:03:53;;;;24.50
70969;BMP280;58630;43.022;25.100;2023-08-20T04:06:19;;;;24.50
70969;BMP280;58630;43.022;25.100;2023-08-20T04:08:44;;;;24.50
70969;BMP280;58630;43.022;25.100;2023-08-20T04:11:10;;;;24.50
70969;BMP280;58630;43.022;25.100;2023-08-20T04:13:35;;;;24.40
70969;BMP280;58630;43.022;25.100;2023-08-20T04:16:01;;;;24.40
70969;BMP280;58630;43.022;25.100;2023-08-20T04:18:26;;;;24.40
70969;BMP280;58630;43.022;25.100;2023-08-20T04:20:52;;;;24.40
70969;BMP280;58630;43.022;25.100;2023-08-20T04:23:18;;;;24.40
70969;BMP280;58630;43.022;25.100;2023-08-20T04:25:44;;;;24.40
70969;BMP280;58630;43.022;25.100;2023-08-20T04:28:10;;;;24.40
70969;BMP280;58630;43.022;25.100;2023-08-20T04:30:36;;;;24.40
70969;BMP280;58630;43.022;25.100;2023-08-20T04:33:01;;;;24.30
70969;BMP280;58630;43.022;25.100;2023-08-20T04:35:27;;;;24.30
70969;BMP280;58630;43.022;25.100;2023-08-20T04:37:53;;;;24.30
70969;BMP280;58630;43.022;25.100;2023-08-20T04:40:18;;;;24.30
70969;BMP280;58630;43.022;25.100;2023-08-20T04:42:44;;;;24.30
70969;BMP280;58630;43.022;25.100;2023-08-20T04:45:09;;;;24.30
70969;BMP280;58630;43.022;25.100;2023-08-20T04:47:36;;;;24.30
70969;BMP280;58630;43.022;25.100;2023-08-20T04:50:02;;;;24.30
70969;BMP280;58630;43.022;25.100;2023-08-20T04:52:28;;;;24.30
70969;BMP280;58630;43.022;25.100;2023-08-20T04:54:53;;;;24.30
70969;BMP280;58630;43.022;25.100;2023-08-20T04:57:19;;;;24.30
70969;BMP280;58630;43.022;25.100;2023-08-20T04:59:44;;;;24.30
70969;BMP280;58630;43.022;25.100;2023-08-20T05:02:13;;;;24.30
70969;BMP280;58630;43.022;25.100;2023-08-20T05:04:39;;;;24.30
70969;BMP280;58630;43.022;25.100;2023-08-20T05:07:05;;;;24.30
70969;BMP280;58630;43.022;25.100;2023-08-20T05:09:30;;;;24.30
70969;BMP280;58630;43.022;25.100;2023-08-20T05:11:56;;;;24.30
70969;BMP280;58630;43.022;25.100;2023-08-20T05:14:21;;;;24.30
70969;BMP280;58630;43.022;25.100;2023-08-20T05:16:47;;;;24.30
70969;BMP280;58630;43.022;25.100;2023-08-20T05:19:12;;;;24.30
70969;BMP280;58630;43.022;25.100;2023-08-20T05:21:38;;;;24.30
70969;BMP280;58630;43.022;25.100;2023-08-20T05:24:04;;;;24.30
70969;BMP280;58630;43.022;25.100;2023-08-20T05:26:29;;;;24.30
70969;BMP280;58630;43.022;25.100;2023-08-20T05:28:55;;;;24.30
70969;BMP280;58630;43.022;25.100;2023-08-20T05:31:20;;;;24.30
70969;BMP280;58630;43.022;25.100;2023-08-20T05:33:46;;;;24.30
70969;BMP280;58630;43.022;25.100;2023-08-20T05:36:11;;;;24.30
70969;BMP280;58630;43.022;25.100;2023-08-20T05:38:37;;;;24.30
70969;BMP280;58630;43.022;25.100;2023-08-20T05:41:03;;;;24.30
70969;BMP280;58630;43.022;25.100;2023-08-20T05:43:28;;;;24.30
70969;BMP280;58630;43.022;25.100;2023-08-20T05:45:54;;;;24.30
70969;BMP280;58630;43.022;25.100;2023-08-20T05:48:19;;;;24.30
70969;BMP280;58630;43.022;25.100;2023-08-20T05:50:45;;;;24.30
70969;BMP280;58630;43.022;25.100;2023-08-20T05:53:10;;;;24.30
70969;BMP280;58630;43.022;25.100;2023-08-20T05:55:36;;;;24.30
70969;BMP280;58630;43.022;25.100;2023-08-20T05:58:03;;;;24.30
70969;BMP280;58630;43.022;25.100;2023-08-20T06:00:28;;;;24.30
70969;BMP280;58630;43.022;25.100;2023-08-20T06:02:54;;;;24.30
70969;BMP280;58630;43.022;25.100;2023-08-20T06:05:19;;;;24.30
70969;BMP280;58630;43.022;25.100;2023-08-20T06:07:45;;;;24.30
70969;BMP280;58630;43.022;25.100;2023-08-20T06:10:10;;;;24.30
70969;BMP280;58630;43.022;25.100;2023-08-20T06:12:37;;;;24.30
70969;BMP280;58630;43.022;25.100;2023-08-20T06:15:03;;;;24.30
70969;BMP280;58630;43.022;25.100;2023-08-20T06:17:29;;;;24.40
70969;BMP280;58630;43.022;25.100;2023-08-20T06:19:54;;;;24.40
70969;BMP280;58630;43.022;25.100;2023-08-20T06:22:20;;;;24.40
70969;BMP280;58630;43.022;25.100;2023-08-20T06:24:46;;;;24.40
70969;BMP280;58630;43.022;25.100;2023-08-20T06:27:11;;;;24.40
70969;BMP280;58630;43.022;25.100;2023-08-20T06:29:37;;;;24.40
70969;BMP280;58630;43.022;25.100;2023-08-20T06:32:02;;;;24.40
70969;BMP280;58630;43.022;25.100;2023-08-20T06:34:28;;;;24.50
70969;BMP280;58630;43.022;25.100;2023-08-20T06:36:54;;;;24.50
70969;BMP280;58630;43.022;25.100;2023-08-20T06:39:19;;;;24.50
70969;BMP280;58630;43.022;25.100;2023-08-20T06:41:45;;;;24.50
70969;BMP280;58630;43.022;25.100;2023-08-20T06:44:11;;;;24.50
70969;BMP280;58630;43.022;25.100;2023-08-20T06:46:36;;;;24.50
70969;BMP280;58630;43.022;25.100;2023-08-20T06:49:02;;;;24.50
70969;BMP280;58630;43.022;25.100;2023-08-20T06:51:28;;;;24.50
70969;BMP280;58630;43.022;25.100;2023-08-20T06:53:53;;;;24.50
70969;BMP280;58630;43.022;25.100;2023-08-20T06:56:20;;;;24.60
70969;BMP280;58630;43.022;25.100;2023-08-20T06:58:46;;;;24.60
70969;BMP280;58630;43.022;25.100;2023-08-20T07:01:11;;;;24.60
70969;BMP280;58630;43.022;25.100;2023-08-20T07:03:40;;;;24.60
70969;BMP280;58630;43.022;25.100;2023-08-20T07:06:06;;;;24.60
70969;BMP280;58630;43.022;25.100;2023-08-20T07:08:32;;;;24.60
70969;BMP280;58630;43.022;25.100;2023-08-20T07:10:57;;;;24.70
70969;BMP280;58630;43.022;25.100;2023-08-20T07:13:23;;;;24.70
70969;BMP280;58630;43.022;25.100;2023-08-20T07:15:49;;;;24.70
70969;BMP280;58630;43.022;25.100;2023-08-20T07:18:14;;;;24.70
70969;BMP280;58630;43.022;25.100;2023-08-20T07:20:43;;;;24.70
70969;BMP280;58630;43.022;25.100;2023-08-20T07:23:09;;;;24.70
70969;BMP280;58630;43.022;25.100;2023-08-20T07:25:38;;;;24.70
70969;BMP280;58630;43.022;25.100;2023-08-20T07:28:04;;;;24.80
70969;BMP280;58630;43.022;25.100;2023-08-20T07:30:30;;;;24.80
70969;BMP280;58630;43.022;25.100;2023-08-20T07:32:55;;;;24.80
70969;BMP280;58630;43.022;25.100;2023-08-20T07:35:21;;;;24.80
70969;BMP280;58630;43.022;25.100;2023-08-20T07:37:46;;;;24.80
70969;BMP280;58630;43.022;25.100;2023-08-20T07:40:12;;;;24.80
70969;BMP280;58630;43.022;25.100;2023-08-20T07:42:39;;;;24.90
70969;BMP280;58630;43.022;25.100;2023-08-20T07:45:05;;;;24.80
70969;BMP280;58630;43.022;25.100;2023-08-20T07:47:31;;;;24.90
70969;BMP280;58630;43.022;25.100;2023-08-20T07:49:56;;;;24.90
70969;BMP280;58630;43.022;25.100;2023-08-20T07:52:22;;;;24.90
70969;BMP280;58630;43.022;25.100;2023-08-20T07:54:47;;;;24.90
70969;BMP280;58630;43.022;25.100;2023-08-20T07:57:13;;;;24.90
70969;BMP280;58630;43.022;25.100;2023-08-20T07:59:39;;;;24.90
70969;BMP280;58630;43.022;25.100;2023-08-20T08:02:05;;;;24.90
70969;BMP280;58630;43.022;25.100;2023-08-20T08:04:30;;;;25.00
70969;BMP280;58630;43.022;25.100;2023-08-20T08:06:56;;;;25.00
70969;BMP280;58630;43.022;25.100;2023-08-20T08:09:27;;;;25.00
70969;BMP280;58630;43.022;25.100;2023-08-20T08:11:53;;;;25.00
70969;BMP280;58630;43.022;25.100;2023-08-20T08:14:18;;;;25.00
70969;BMP280;58630;43.022;25.100;2023-08-20T08:16:46;;;;25.00
70969;BMP280;58630;43.022;25.100;2023-08-20T08:19:11;;;;25.00
70969;BMP280;58630;43.022;25.100;2023-08-20T08:21:37;;;;25.00
70969;BMP280;58630;43.022;25.100;2023-08-20T08:24:03;;;;25.10
70969;BMP280;58630;43.022;25.100;2023-08-20T08:26:29;;;;25.10
70969;BMP280;58630;43.022;25.100;2023-08-20T08:28:55;;;;25.10
70969;BMP280;58630;43.022;25.100;2023-08-20T08:31:20;;;;25.10
70969;BMP280;58630;43.022;25.100;2023-08-20T08:33:46;;;;25.10
70969;BMP280;58630;43.022;25.100;2023-08-20T08:36:11;;;;25.10
70969;BMP280;58630;43.022;25.100;2023-08-20T08:38:37;;;;25.10
70969;BMP280;58630;43.022;25.100;2023-08-20T08:41:03;;;;25.20
70969;BMP280;58630;43.022;25.100;2023-08-20T08:43:29;;;;25.20
70969;BMP280;58630;43.022;25.100;2023-08-20T08:45:55;;;;25.20
70969;BMP280;58630;43.022;25.100;2023-08-20T08:48:21;;;;25.20
70969;BMP280;58630;43.022;25.100;2023-08-20T08:50:46;;;;25.20
70969;BMP280;58630;43.022;25.100;2023-08-20T08:53:12;;;;25.20
70969;BMP280;58630;43.022;25.100;2023-08-20T08:55:38;;;;25.30
70969;BMP280;58630;43.022;25.100;2023-08-20T08:58:04;;;;25.20
70969;BMP280;58630;43.022;25.100;2023-08-20T09:03:23;;;;25.20
70969;BMP280;58630;43.022;25.100;2023-08-20T09:05:57;;;;25.40
70969;BMP280;58630;43.022;25.100;2023-08-20T09:08:25;;;;25.50
70969;BMP280;58630;43.022;25.100;2023-08-20T09:10:52;;;;25.60
70969;BMP280;58630;43.022;25.100;2023-08-20T09:13:22;;;;25.70
70969;BMP280;58630;43.022;25.100;2023-08-20T09:15:50;;;;25.70
70969;BMP280;58630;43.022;25.100;2023-08-20T09:18:15;;;;25.80
70969;BMP280;58630;43.022;25.100;2023-08-20T09:20:41;;;;25.90
70969;BMP280;58630;43.022;25.100;2023-08-20T09:23:12;;;;26.00
70969;BMP280;58630;43.022;25.100;2023-08-20T09:25:39;;;;26.00
70969;BMP280;58630;43.022;25.100;2023-08-20T09:28:04;;;;26.00
70969;BMP280;58630;43.022;25.100;2023-08-20T09:30:30;;;;26.10
70969;BMP280;58630;43.022;25.100;2023-08-20T09:33:02;;;;26.10
70969;BMP280;58630;43.022;25.100;2023-08-20T09:35:28;;;;26.20
70969;BMP280;58630;43.022;25.100;2023-08-20T09:37:58;;;;26.20
70969;BMP280;58630;43.022;25.100;2023-08-20T09:40:24;;;;26.20
70969;BMP280;58630;43.022;25.100;2023-08-20T09:42:49;;;;26.20
70969;BMP280;58630;43.022;25.100;2023-08-20T09:45:16;;;;26.20
70969;BMP280;58630;43.022;25.100;2023-08-20T09:47:42;;;;26.30
70969;BMP280;58630;43.022;25.100;2023-08-20T09:50:10;;;;26.30
70969;BMP280;58630;43.022;25.100;2023-08-20T09:52:39;;;;26.40
70969;BMP280;58630;43.022;25.100;2023-08-20T09:55:09;;;;26.50
70969;BMP280;58630;43.022;25.100;2023-08-20T09:57:36;;;;26.50
70969;BMP280;58630;43.022;25.100;2023-08-20T10:00:03;;;;26.40
70969;BMP280;58630;43.022;25.100;2023-08-20T10:02:31;;;;26.40
70969;BMP280;58630;43.022;25.100;2023-08-20T10:04:57;;;;26.50
70969;BMP280;58630;43.022;25.100;2023-08-20T10:07:26;;;;26.60
70969;BMP280;58630;43.022;25.100;2023-08-20T10:09:56;;;;26.60
70969;BMP280;58630;43.022;25.100;2023-08-20T10:12:25;;;;26.80
70969;BMP280;58630;43.022;25.100;2023-08-20T10:14:51;;;;26.90
70969;BMP280;58630;43.022;25.100;2023-08-20T10:17:17;;;;27.10
70969;BMP280;58630;43.022;25.100;2023-08-20T10:19:42;;;;27.10
70969;BMP280;58630;43.022;25.100;2023-08-20T10:22:08;;;;27.10
70969;BMP280;58630;43.022;25.100;2023-08-20T10:24:40;;;;27.00
70969;BMP280;58630;43.022;25.100;2023-08-20T10:27:12;;;;27.30
70969;BMP280;58630;43.022;25.100;2023-08-20T10:29:41;;;;27.30
70969;BMP280;58630;43.022;25.100;2023-08-20T10:32:10;;;;27.20
70969;BMP280;58630;43.022;25.100;2023-08-20T10:34:38;;;;27.30
70969;BMP280;58630;43.022;25.100;2023-08-20T10:37:10;;;;27.30
70969;BMP280;58630;43.022;25.100;2023-08-20T10:39:37;;;;27.40
70969;BMP280;58630;43.022;25.100;2023-08-20T10:44:59;;;;27.50
70969;BMP280;58630;43.022;25.100;2023-08-20T10:47:26;;;;27.50
70969;BMP280;58630;43.022;25.100;2023-08-20T10:49:59;;;;27.60
70969;BMP280;58630;43.022;25.100;2023-08-20T10:52:25;;;;27.50
70969;BMP280;58630;43.022;25.100;2023-08-20T10:54:51;;;;27.40
70969;BMP280;58630;43.022;25.100;2023-08-20T10:57:17;;;;27.40
70969;BMP280;58630;43.022;25.100;2023-08-20T10:59:55;;;;27.30
70969;BMP280;58630;43.022;25.100;2023-08-20T11:02:21;;;;27.30
70969;BMP280;58630;43.022;25.100;2023-08-20T11:04:47;;;;27.30
70969;BMP280;58630;43.022;25.100;2023-08-20T11:07:12;;;;27.40
70969;BMP280;58630;43.022;25.100;2023-08-20T11:09:42;;;;27.40
70969;BMP280;58630;43.022;25.100;2023-08-20T11:12:10;;;;27.30
70969;BMP280;58630;43.022;25.100;2023-08-20T11:14:35;;;;27.40
70969;BMP280;58630;43.022;25.100;2023-08-20T11:17:01;;;;27.50
70969;BMP280;58630;43.022;25.100;2023-08-20T11:19:27;;;;27.50
70969;BMP280;58630;43.022;25.100;2023-08-20T11:21:54;;;;27.50
70969;BMP280;58630;43.022;25.100;2023-08-20T11:24:19;;;;27.50
70969;BMP280;58630;43.022;25.100;2023-08-20T11:26:45;;;;27.50
70969;BMP280;58630;43.022;25.100;2023-08-20T11:29:12;;;;27.60
70969;BMP280;58630;43.022;25.100;2023-08-20T11:31:38;;;;27.60
70969;BMP280;58630;43.022;25.100;2023-08-20T11:34:03;;;;27.60
70969;BMP280;58630;43.022;25.100;2023-08-20T11:36:29;;;;27.70
70969;BMP280;58630;43.022;25.100;2023-08-20T11:38:55;;;;27.80
70969;BMP280;58630;43.022;25.100;2023-08-20T11:41:21;;;;27.70
70969;BMP280;58630;43.022;25.100;2023-08-20T11:43:51;;;;27.70
70969;BMP280;58630;43.022;25.100;2023-08-20T11:46:18;;;;27.60
70969;BMP280;58630;43.022;25.100;2023-08-20T11:51:38;;;;27.70
70969;BMP280;58630;43.022;25.100;2023-08-20T11:54:07;;;;27.70
70969;BMP280;58630;43.022;25.100;2023-08-20T11:56:33;;;;27.90
70969;BMP280;58630;43.022;25.100;2023-08-20T11:59:00;;;;28.30
70969;BMP280;58630;43.022;25.100;2023-08-20T12:01:29;;;;28.60
70969;BMP280;58630;43.022;25.100;2023-08-20T12:03:59;;;;28.80
70969;BMP280;58630;43.022;25.100;2023-08-20T12:06:24;;;;29.10
70969;BMP280;58630;43.022;25.100;2023-08-20T12:08:54;;;;29.20
70969;BMP280;58630;43.022;25.100;2023-08-20T12:11:23;;;;29.40
70969;BMP280;58630;43.022;25.100;2023-08-20T12:13:48;;;;29.60
70969;BMP280;58630;43.022;25.100;2023-08-20T12:16:14;;;;29.70
70969;BMP280;58630;43.022;25.100;2023-08-20T12:18:39;;;;29.80
70969;BMP280;58630;43.022;25.100;2023-08-20T12:21:05;;;;30.00
70969;BMP280;58630;43.022;25.100;2023-08-20T12:23:31;;;;30.10
70969;BMP280;58630;43.022;25.100;2023-08-20T12:25:56;;;;30.30
70969;BMP280;58630;43.022;25.100;2023-08-20T12:28:22;;;;30.40
70969;BMP280;58630;43.022;25.100;2023-08-20T12:30:47;;;;30.50
70969;BMP280;58630;43.022;25.100;2023-08-20T12:33:13;;;;30.60
70969;BMP280;58630;43.022;25.100;2023-08-20T12:35:38;;;;30.80
70969;BMP280;58630;43.022;25.100;2023-08-20T12:38:04;;;;30.90
70969;BMP280;58630;43.022;25.100;2023-08-20T12:40:30;;;;31.00
70969;BMP280;58630;43.022;25.100;2023-08-20T12:42:56;;;;31.20
70969;BMP280;58630;43.022;25.100;2023-08-20T12:45:22;;;;31.30
70969;BMP280;58630;43.022;25.100;2023-08-20T12:47:47;;;;31.40
70969;BMP280;58630;43.022;25.100;2023-08-20T12:50:13;;;;31.50
70969;BMP280;58630;43.022;25.100;2023-08-20T12:52:39;;;;31.70
70969;BMP280;58630;43.022;25.100;2023-08-20T12:55:05;;;;31.80
70969;BMP280;58630;43.022;25.100;2023-08-20T12:57:33;;;;32.00
70969;BMP280;58630;43.022;25.100;2023-08-20T12:59:59;;;;32.10
70969;BMP280;58630;43.022;25.100;2023-08-20T13:02:25;;;;32.20
70969;BMP280;58630;43.022;25.100;2023-08-20T13:04:50;;;;32.40
70969;BMP280;58630;43.022;25.100;2023-08-20T13:07:16;;;;32.50
70969;BMP280;58630;43.022;25.100;2023-08-20T13:09:42;;;;32.60
70969;BMP280;58630;43.022;25.100;2023-08-20T13:12:07;;;;32.80
70969;BMP280;58630;43.022;25.100;2023-08-20T13:14:40;;;;32.80
70969;BMP280;58630;43.022;25.100;2023-08-20T13:17:06;;;;32.90
70969;BMP280;58630;43.022;25.100;2023-08-20T13:19:32;;;;33.00
70969;BMP280;58630;43.022;25.100;2023-08-20T13:21:57;;;;33.20
70969;BMP280;58630;43.022;25.100;2023-08-20T13:24:23;;;;33.30
70969;BMP280;58630;43.022;25.100;2023-08-20T13:26:48;;;;33.30
70969;BMP280;58630;43.022;25.100;2023-08-20T13:29:14;;;;33.50
70969;BMP280;58630;43.022;25.100;2023-08-20T13:31:39;;;;33.60
70969;BMP280;58630;43.022;25.100;2023-08-20T13:34:05;;;;33.60
70969;BMP280;58630;43.022;25.100;2023-08-20T13:36:31;;;;33.80
70969;BMP280;58630;43.022;25.100;2023-08-20T13:38:56;;;;34.00
70969;BMP280;58630;43.022;25.100;2023-08-20T13:41:22;;;;34.00
70969;BMP280;58630;43.022;25.100;2023-08-20T13:43:48;;;;34.10
70969;BMP280;58630;43.022;25.100;2023-08-20T13:46:13;;;;34.20
70969;BMP280;58630;43.022;25.100;2023-08-20T13:48:39;;;;34.30
70969;BMP280;58630;43.022;25.100;2023-08-20T13:51:04;;;;34.40
70969;BMP280;58630;43.022;25.100;2023-08-20T13:53:30;;;;34.50
70969;BMP280;58630;43.022;25.100;2023-08-20T13:55:55;;;;34.70
70969;BMP280;58630;43.022;25.100;2023-08-20T13:58:21;;;;34.80
70969;BMP280;58630;43.022;25.100;2023-08-20T14:00:46;;;;34.80
70969;BMP280;58630;43.022;25.100;2023-08-20T14:03:12;;;;35.00
70969;BMP280;58630;43.022;25.100;2023-08-20T14:05:37;;;;35.10
70969;BMP280;58630;43.022;25.100;2023-08-20T14:08:03;;;;35.10
70969;BMP280;58630;43.022;25.100;2023-08-20T14:10:28;;;;35.20
70969;BMP280;58630;43.022;25.100;2023-08-20T14:12:54;;;;35.30
70969;BMP280;58630;43.022;25.100;2023-08-20T14:15:20;;;;35.40
70969;BMP280;58630;43.022;25.100;2023-08-20T14:17:45;;;;35.60
70969;BMP280;58630;43.022;25.100;2023-08-20T14:20:11;;;;35.70
70969;BMP280;58630;43.022;25.100;2023-08-20T14:22:36;;;;35.80
70969;BMP280;58630;43.022;25.100;2023-08-20T14:25:03;;;;35.90
70969;BMP280;58630;43.022;25.100;2023-08-20T14:27:29;;;;35.90
70969;BMP280;58630;43.022;25.100;2023-08-20T14:29:54;;;;35.90
70969;BMP280;58630;43.022;25.100;2023-08-20T14:32:20;;;;36.00
70969;BMP280;58630;43.022;25.100;2023-08-20T14:34:46;;;;36.10
70969;BMP280;58630;43.022;25.100;2023-08-20T14:37:11;;;;36.20
70969;BMP280;58630;43.022;25.100;2023-08-20T14:39:38;;;;36.30
70969;BMP280;58630;43.022;25.100;2023-08-20T14:42:04;;;;36.40
70969;BMP280;58630;43.022;25.100;2023-08-20T14:44:29;;;;36.40
70969;BMP280;58630;43.022;25.100;2023-08-20T14:46:55;;;;36.50
70969;BMP280;58630;43.022;25.100;2023-08-20T14:49:20;;;;36.60
70969;BMP280;58630;43.022;25.100;2023-08-20T14:51:46;;;;36.70
70969;BMP280;58630;43.022;25.100;2023-08-20T14:54:12;;;;36.70
70969;BMP280;58630;43.022;25.100;2023-08-20T14:56:38;;;;36.80
70969;BMP280;58630;43.022;25.100;2023-08-20T14:59:03;;;;36.80
70969;BMP280;58630;43.022;25.100;2023-08-20T15:01:29;;;;36.80
70969;BMP280;58630;43.022;25.100;2023-08-20T15:03:55;;;;36.90
70969;BMP280;58630;43.022;25.100;2023-08-20T15:06:20;;;;37.00
70969;BMP280;58630;43.022;25.100;2023-08-20T15:08:47;;;;37.10
70969;BMP280;58630;43.022;25.100;2023-08-20T15:11:13;;;;37.20
70969;BMP280;58630;43.022;25.100;2023-08-20T15:13:38;;;;37.20
70969;BMP280;58630;43.022;25.100;2023-08-20T15:16:04;;;;37.30
70969;BMP280;58630;43.022;25.100;2023-08-20T15:18:29;;;;37.30
70969;BMP280;58630;43.022;25.100;2023-08-20T15:20:55;;;;37.30
70969;BMP280;58630;43.022;25.100;2023-08-20T15:23:21;;;;37.30
70969;BMP280;58630;43.022;25.100;2023-08-20T15:25:47;;;;37.30
70969;BMP280;58630;43.022;25.100;2023-08-20T15:28:13;;;;37.40
70969;BMP280;58630;43.022;25.100;2023-08-20T15:30:38;;;;37.40
70969;BMP280;58630;43.022;25.100;2023-08-20T15:33:04;;;;37.40
70969;BMP280;58630;43.022;25.100;2023-08-20T15:35:30;;;;37.40
70969;BMP280;58630;43.022;25.100;2023-08-20T15:37:55;;;;37.50
70969;BMP280;58630;43.022;25.100;2023-08-20T15:40:21;;;;37.50
70969;BMP280;58630;43.022;25.100;2023-08-20T15:42:46;;;;37.50
70969;BMP280;58630;43.022;25.100;2023-08-20T15:45:12;;;;37.50
70969;BMP280;58630;43.022;25.100;2023-08-20T15:47:37;;;;37.40
70969;BMP280;58630;43.022;25.100;2023-08-20T15:50:03;;;;37.40
70969;BMP280;58630;43.022;25.100;2023-08-20T15:52:29;;;;37.40
70969;BMP280;58630;43.022;25.100;2023-08-20T15:54:54;;;;37.50